Time;durP1;ratioP1;P1;durP2;ratioP2;P2;SDS_P1;SDS_P2;PMS_P1;PMS_P2;Temp;Humidity;BMP_temperature;BMP_pressure;BME280_temperature;BME280_humidity;BME280_pressure;Samples;Min_cycle;Max_cycle;Signal;HPM_P1;HPM_P2
2021/08/28 00:01:38;;;;;;;2.15;1.40;;;23.80;42.60;;;;;;5051552;28;20681;-59
2021/08/28 00:04:04;;;;;;;2.03;1.20;;;23.80;42.60;;;;;;5058729;28;20565;-59
2021/08/28 00:06:31;;;;;;;1.90;1.42;;;23.80;42.60;;;;;;5070547;28;20488;-59
2021/08/28 00:08:57;;;;;;;1.30;1.20;;;23.80;42.60;;;;;;5069202;28;20670;-59
2021/08/28 00:11:24;;;;;;;1.73;1.08;;;23.80;42.50;;;;;;5066994;28;20564;-59
2021/08/28 00:13:50;;;;;;;1.00;1.00;;;23.80;42.50;;;;;;5067871;28;20572;-59
2021/08/28 00:16:17;;;;;;;1.50;1.40;;;23.80;42.50;;;;;;5069366;28;20201;-59
2021/08/28 00:18:43;;;;;;;1.48;1.38;;;23.80;42.60;;;;;;5068448;28;20213;-59
2021/08/28 00:21:10;;;;;;;1.55;1.20;;;23.80;42.50;;;;;;5069530;28;20206;-59
2021/08/28 00:23:36;;;;;;;1.42;1.30;;;23.80;42.50;;;;;;5068755;28;20229;-59
2021/08/28 00:26:03;;;;;;;1.67;1.30;;;23.80;42.50;;;;;;5070182;28;20199;-58
2021/08/28 00:28:29;;;;;;;2.08;1.40;;;23.80;42.50;;;;;;5069061;28;20225;-59
2021/08/28 00:30:56;;;;;;;1.55;1.40;;;23.80;42.50;;;;;;5067472;28;20208;-59
2021/08/28 00:33:23;;;;;;;1.52;1.15;;;23.80;42.50;;;;;;5069701;28;20205;-59
2021/08/28 00:35:49;;;;;;;1.25;1.15;;;23.80;42.50;;;;;;5072416;28;20192;-59
2021/08/28 00:38:16;;;;;;;1.13;0.90;;;23.80;42.50;;;;;;5071104;28;20357;-60
2021/08/28 00:40:42;;;;;;;1.33;1.10;;;23.80;42.50;;;;;;5071939;28;20299;-59
2021/08/28 00:43:08;;;;;;;1.70;1.17;;;23.80;43.10;;;;;;5072555;28;20668;-59
2021/08/28 00:45:35;;;;;;;1.80;1.20;;;23.80;42.50;;;;;;5073699;28;20656;-59
2021/08/28 00:48:01;;;;;;;1.88;1.27;;;23.80;42.50;;;;;;5073199;28;20225;-59
2021/08/28 00:50:28;;;;;;;1.30;1.20;;;23.80;42.50;;;;;;5071163;28;20205;-59
2021/08/28 00:52:54;;;;;;;2.33;1.30;;;23.80;42.50;;;;;;5073721;28;20224;-59
2021/08/28 00:55:21;;;;;;;1.55;1.35;;;23.80;42.50;;;;;;5058901;28;20232;-57
2021/08/28 00:57:47;;;;;;;0.93;0.93;;;23.80;42.50;;;;;;5072807;28;20303;-59
2021/08/28 01:00:14;;;;;;;2.20;1.30;;;23.80;42.50;;;;;;5071932;28;20572;-59
2021/08/28 01:02:40;;;;;;;1.60;1.40;;;23.80;42.60;;;;;;5072323;28;20233;-59
2021/08/28 01:05:07;;;;;;;1.55;1.30;;;23.80;42.70;;;;;;5073837;22;20222;-50
2021/08/28 01:07:33;;;;;;;3.42;1.92;;;23.80;42.70;;;;;;5052433;28;20695;-49
2021/08/28 01:10:00;;;;;;;2.45;1.48;;;23.80;42.70;;;;;;5062544;28;20299;-50
2021/08/28 01:12:26;;;;;;;1.77;1.20;;;23.80;42.80;;;;;;5055659;28;20237;-51
2021/08/28 01:14:52;;;;;;;1.73;1.50;;;23.80;42.70;;;;;;5062305;28;20209;-53
2021/08/28 01:17:19;;;;;;;1.30;1.10;;;23.80;42.70;;;;;;5065256;28;20249;-54
2021/08/28 01:19:46;;;;;;;1.67;1.27;;;23.80;42.70;;;;;;5072040;28;20275;-55
2021/08/28 01:22:12;;;;;;;2.70;1.48;;;23.80;42.80;;;;;;5053694;28;20284;-49
2021/08/28 01:24:38;;;;;;;2.00;1.80;;;23.80;42.70;;;;;;5051923;28;20216;-53
2021/08/28 01:27:05;;;;;;;1.40;1.30;;;23.80;42.70;;;;;;5051476;28;20765;-54
2021/08/28 01:29:32;;;;;;;1.83;1.30;;;23.80;42.70;;;;;;5051923;28;20204;-50
2021/08/28 01:31:58;;;;;;;1.83;1.23;;;23.80;42.80;;;;;;5050191;28;20210;-51
2021/08/28 01:34:25;;;;;;;1.73;1.20;;;23.80;42.70;;;;;;5069953;28;20229;-54
2021/08/28 01:36:51;;;;;;;1.20;1.10;;;23.80;42.80;;;;;;5067608;28;20251;-54
2021/08/28 01:39:18;;;;;;;3.85;1.50;;;23.80;42.70;;;;;;5050817;28;20206;-52
2021/08/28 01:41:44;;;;;;;1.33;1.20;;;23.80;42.70;;;;;;5038837;28;20202;-55
2021/08/28 01:44:11;;;;;;;1.35;1.15;;;23.80;42.70;;;;;;5063613;28;20313;-48
2021/08/28 01:46:37;;;;;;;1.98;1.02;;;23.80;42.70;;;;;;5034159;28;20719;-53
2021/08/28 01:49:03;;;;;;;1.20;1.20;;;23.80;42.70;;;;;;5051021;28;20237;-50
2021/08/28 01:51:30;;;;;;;2.60;1.30;;;23.80;42.80;;;;;;5050434;28;20214;-57
2021/08/28 01:53:56;;;;;;;1.33;1.23;;;23.80;42.70;;;;;;5067480;28;20240;-52
2021/08/28 01:56:23;;;;;;;1.48;1.38;;;23.80;42.70;;;;;;5059159;28;20209;-51
2021/08/28 01:58:49;;;;;;;1.45;1.35;;;23.70;42.70;;;;;;5050853;28;20210;-54
2021/08/28 02:01:16;;;;;;;2.42;1.27;;;23.80;42.70;;;;;;5057985;28;20301;-55
2021/08/28 02:03:43;;;;;;;1.45;1.20;;;23.80;42.70;;;;;;5051853;28;20768;-51
2021/08/28 02:06:09;;;;;;;1.23;1.13;;;23.80;42.70;;;;;;5058053;28;20205;-51
2021/08/28 02:08:36;;;;;;;1.83;1.38;;;23.80;42.80;;;;;;5052945;28;20218;-53
2021/08/28 02:11:02;;;;;;;1.92;1.20;;;23.80;42.70;;;;;;5056260;28;20215;-55
2021/08/28 02:13:28;;;;;;;1.30;1.20;;;23.80;42.70;;;;;;5053710;28;20228;-57
2021/08/28 02:15:55;;;;;;;1.50;1.40;;;23.80;43.40;;;;;;5054319;28;20641;-53
2021/08/28 02:18:21;;;;;;;1.73;1.17;;;23.80;42.70;;;;;;5050077;28;20312;-50
2021/08/28 02:20:48;;;;;;;2.25;1.23;;;23.70;42.70;;;;;;5051824;28;20209;-53
2021/08/28 02:23:14;;;;;;;1.35;1.10;;;23.80;42.70;;;;;;5068596;28;20327;-51
2021/08/28 02:25:41;;;;;;;1.40;1.20;;;23.80;42.80;;;;;;5067337;28;20292;-52
2021/08/28 02:28:07;;;;;;;1.30;1.20;;;23.80;42.70;;;;;;5049995;28;20325;-52
2021/08/28 02:30:34;;;;;;;3.00;1.30;;;23.80;42.70;;;;;;5049486;28;20206;-54
2021/08/28 02:33:00;;;;;;;1.85;1.48;;;23.80;42.70;;;;;;5049365;28;20251;-53
2021/08/28 02:35:27;;;;;;;1.75;1.50;;;23.80;42.80;;;;;;5065358;28;20296;-53
2021/08/28 02:37:53;;;;;;;1.70;1.35;;;23.80;42.70;;;;;;5056216;28;20236;-53
2021/08/28 02:40:20;;;;;;;1.88;1.30;;;23.80;42.70;;;;;;5050314;28;20201;-57
2021/08/28 02:42:46;;;;;;;2.05;1.27;;;23.80;42.70;;;;;;5051007;28;20585;-53
2021/08/28 02:45:12;;;;;;;1.30;1.20;;;23.80;42.70;;;;;;5049671;28;20556;-53
2021/08/28 02:47:39;;;;;;;1.77;1.58;;;23.80;42.70;;;;;;5051553;28;20232;-52
2021/08/28 02:50:05;;;;;;;1.30;1.20;;;23.70;42.60;;;;;;5049796;28;20263;-52
2021/08/28 02:52:32;;;;;;;1.35;1.10;;;23.80;42.70;;;;;;5061348;28;20211;-57
2021/08/28 02:54:58;;;;;;;1.52;1.15;;;23.80;42.70;;;;;;5058860;28;20208;-56
2021/08/28 02:57:25;;;;;;;2.05;1.30;;;23.70;42.60;;;;;;5056879;28;20752;-58
2021/08/28 02:59:51;;;;;;;1.48;1.38;;;23.80;42.70;;;;;;5050867;28;20301;-55
2021/08/28 03:02:18;;;;;;;1.40;1.30;;;23.80;43.40;;;;;;5054790;28;20307;-52
2021/08/28 03:04:44;;;;;;;2.10;1.30;;;23.80;42.80;;;;;;5063733;28;20234;-54
2021/08/28 03:07:10;;;;;;;1.15;1.05;;;23.80;42.70;;;;;;5050440;28;20785;-54
2021/08/28 03:09:37;;;;;;;2.05;1.17;;;23.80;42.70;;;;;;5050519;28;20288;-53
2021/08/28 03:12:03;;;;;;;2.65;1.58;;;23.70;42.60;;;;;;5049934;28;20259;-53
2021/08/28 03:14:30;;;;;;;2.50;1.23;;;23.80;42.70;;;;;;5051078;28;20884;-53
2021/08/28 03:16:56;;;;;;;4.55;1.67;;;23.80;42.70;;;;;;5051518;28;20593;-53
2021/08/28 03:19:23;;;;;;;1.17;1.10;;;23.80;42.70;;;;;;5050443;28;20562;-49
2021/08/28 03:21:49;;;;;;;1.40;1.15;;;23.70;42.60;;;;;;5049756;28;20206;-49
2021/08/28 03:24:16;;;;;;;1.15;1.10;;;23.70;42.60;;;;;;5057663;28;20646;-50
2021/08/28 03:26:42;;;;;;;1.20;1.10;;;23.80;42.70;;;;;;5053044;28;20303;-50
2021/08/28 03:29:09;;;;;;;1.20;1.15;;;23.80;42.70;;;;;;5050892;28;20208;-57
2021/08/28 03:31:35;;;;;;;1.75;1.30;;;23.80;42.70;;;;;;5055731;28;20292;-52
2021/08/28 03:34:02;;;;;;;1.38;1.27;;;23.80;42.70;;;;;;5050958;28;20206;-51
2021/08/28 03:36:28;;;;;;;1.38;1.08;;;23.80;42.80;;;;;;5060687;28;20248;-54
2021/08/28 03:38:54;;;;;;;2.08;1.23;;;23.70;42.60;;;;;;5050740;28;20204;-53
2021/08/28 03:41:21;;;;;;;1.17;1.08;;;23.70;42.60;;;;;;5052513;28;20202;-53
2021/08/28 03:43:47;;;;;;;1.30;1.20;;;23.80;42.70;;;;;;5050231;28;20217;-52
2021/08/28 03:46:14;;;;;;;1.38;1.23;;;23.80;42.70;;;;;;5045101;28;20208;-54
2021/08/28 03:48:40;;;;;;;2.47;1.40;;;23.70;42.60;;;;;;5059312;28;20211;-54
2021/08/28 03:51:07;;;;;;;1.15;1.15;;;23.80;42.70;;;;;;5058680;28;20216;-53
2021/08/28 03:53:33;;;;;;;1.45;1.20;;;23.80;42.70;;;;;;5030808;28;20607;-51
2021/08/28 03:56:00;;;;;;;1.77;1.20;;;23.80;42.70;;;;;;5049467;28;20288;-50
2021/08/28 03:58:26;;;;;;;1.40;1.30;;;23.80;42.80;;;;;;5055330;28;20202;-51
2021/08/28 04:00:53;;;;;;;2.85;1.27;;;23.70;42.60;;;;;;5049386;28;20697;-52
2021/08/28 04:03:19;;;;;;;1.17;1.00;;;23.70;42.60;;;;;;5049940;28;20638;-51
2021/08/28 04:05:46;;;;;;;1.30;1.20;;;23.70;42.60;;;;;;5051016;28;20340;-49
2021/08/28 04:08:12;;;;;;;1.90;1.20;;;23.80;42.80;;;;;;5066950;28;20629;-50
2021/08/28 04:10:38;;;;;;;1.83;1.60;;;23.80;42.80;;;;;;5067074;28;20280;-54
2021/08/28 04:13:05;;;;;;;1.02;0.93;;;23.70;42.60;;;;;;5062799;28;20202;-52
2021/08/28 04:15:31;;;;;;;1.23;1.05;;;23.80;42.70;;;;;;5054477;28;20212;-54
2021/08/28 04:17:58;;;;;;;0.93;0.93;;;23.70;42.60;;;;;;5063368;28;20239;-54
2021/08/28 04:20:24;;;;;;;1.30;1.20;;;23.80;42.70;;;;;;5073300;28;20207;-53
2021/08/28 04:22:51;;;;;;;2.45;1.20;;;23.70;42.60;;;;;;5063898;28;20225;-55
2021/08/28 04:25:17;;;;;;;1.48;1.13;;;23.80;42.70;;;;;;5054015;28;20202;-52
2021/08/28 04:27:44;;;;;;;1.95;1.10;;;23.80;42.80;;;;;;5067840;28;20311;-55
2021/08/28 04:30:10;;;;;;;1.40;1.20;;;23.80;42.80;;;;;;5067063;28;20201;-54
2021/08/28 04:32:37;;;;;;;1.55;1.42;;;23.70;42.70;;;;;;5057247;28;20213;-49
2021/08/28 04:35:03;;;;;;;1.30;1.20;;;23.80;42.80;;;;;;5056171;28;20201;-49
2021/08/28 04:37:30;;;;;;;1.98;1.10;;;23.70;42.70;;;;;;5062497;28;20218;-52
2021/08/28 04:39:56;;;;;;;1.23;1.13;;;23.70;42.70;;;;;;5061472;28;20201;-52
2021/08/28 04:42:23;;;;;;;1.30;1.10;;;23.70;42.70;;;;;;5066620;28;20293;-55
2021/08/28 04:44:53;;;;;;;1.40;1.30;;;23.70;42.60;;;;;;5053211;28;20194;-52
2021/08/28 04:47:20;;;;;;;1.55;1.45;;;23.70;42.60;;;;;;5043649;28;20230;-51
2021/08/28 04:49:46;;;;;;;1.42;1.10;;;23.70;42.70;;;;;;5056194;28;20292;-50
2021/08/28 04:52:13;;;;;;;1.58;1.02;;;23.70;42.60;;;;;;5055038;28;20409;-56
2021/08/28 04:54:40;;;;;;;1.20;1.10;;;23.70;42.70;;;;;;5061641;28;20218;-52
2021/08/28 04:57:07;;;;;;;1.30;1.20;;;23.70;42.70;;;;;;5055513;28;20221;-51
2021/08/28 04:59:33;;;;;;;2.00;1.30;;;23.70;42.70;;;;;;5070899;28;20220;-57
2021/08/28 05:02:01;;;;;;;1.20;1.10;;;23.70;42.60;;;;;;5059534;28;20212;-52
2021/08/28 05:04:27;;;;;;;1.30;1.20;;;23.70;42.70;;;;;;5053209;28;20320;-52
2021/08/28 05:06:54;;;;;;;1.00;1.00;;;23.70;42.70;;;;;;5062585;28;20309;-56
2021/08/28 05:09:20;;;;;;;1.00;1.00;;;23.70;42.60;;;;;;5073043;28;20213;-54
2021/08/28 05:11:47;;;;;;;1.50;1.20;;;23.70;42.60;;;;;;5067130;28;20209;-57
2021/08/28 05:14:13;;;;;;;1.17;1.10;;;23.70;42.60;;;;;;5070622;28;20197;-56
2021/08/28 05:16:40;;;;;;;1.95;1.20;;;23.70;42.60;;;;;;5060583;28;20221;-57
2021/08/28 05:19:06;;;;;;;1.30;1.08;;;23.70;42.60;;;;;;5073121;28;20215;-54
2021/08/28 05:21:33;;;;;;;1.20;1.10;;;23.70;42.60;;;;;;5067020;28;20328;-57
2021/08/28 05:23:59;;;;;;;1.17;1.08;;;23.70;42.60;;;;;;5053347;28;20733;-52
2021/08/28 05:26:26;;;;;;;1.33;1.23;;;23.70;42.60;;;;;;5056202;28;20308;-53
2021/08/28 05:28:52;;;;;;;1.50;1.40;;;23.70;42.70;;;;;;5073231;28;20292;-49
2021/08/28 05:31:18;;;;;;;1.20;1.10;;;23.70;42.70;;;;;;5062729;28;20199;-54
2021/08/28 05:33:45;;;;;;;1.30;1.17;;;23.70;42.70;;;;;;5072902;28;20203;-56
2021/08/28 05:36:11;;;;;;;1.63;1.10;;;23.70;42.60;;;;;;5057572;28;20256;-53
2021/08/28 05:38:38;;;;;;;0.98;0.98;;;23.70;42.60;;;;;;5032450;28;20209;-55
2021/08/28 05:41:05;;;;;;;1.17;1.00;;;23.80;42.70;;;;;;5058665;28;20202;-51
2021/08/28 05:43:32;;;;;;;1.10;1.00;;;23.70;42.60;;;;;;5051938;28;20592;-54
2021/08/28 05:45:58;;;;;;;1.15;1.05;;;23.70;42.60;;;;;;5059085;28;20580;-48
2021/08/28 05:48:25;;;;;;;1.27;1.20;;;23.70;42.60;;;;;;5047468;28;20206;-54
2021/08/28 05:50:51;;;;;;;0.90;0.90;;;23.80;42.80;;;;;;5057259;28;20296;-56
2021/08/28 05:53:18;;;;;;;1.35;0.95;;;23.70;42.60;;;;;;5063685;28;20205;-53
2021/08/28 05:55:44;;;;;;;1.25;1.15;;;23.70;42.60;;;;;;5052624;28;20198;-51
2021/08/28 05:58:11;;;;;;;1.48;1.10;;;23.70;42.60;;;;;;5052408;28;20288;-52
2021/08/28 06:00:37;;;;;;;1.38;1.15;;;23.70;42.60;;;;;;5032320;28;20221;-56
2021/08/28 06:03:04;;;;;;;1.40;1.17;;;23.70;42.60;;;;;;5068833;28;20271;-52
2021/08/28 06:05:30;;;;;;;1.55;1.13;;;23.70;42.70;;;;;;5052169;28;20255;-56
2021/08/28 06:07:56;;;;;;;1.30;1.15;;;23.70;43.00;;;;;;5051459;28;20218;-54
2021/08/28 06:10:23;;;;;;;0.93;0.90;;;23.70;43.00;;;;;;5051387;28;20233;-54
2021/08/28 06:12:49;;;;;;;1.27;1.17;;;23.70;43.00;;;;;;5064140;28;20305;-57
2021/08/28 06:15:16;;;;;;;1.52;1.38;;;23.80;43.10;;;;;;5052119;28;20280;-49
2021/08/28 06:17:42;;;;;;;1.40;1.30;;;23.80;43.10;;;;;;5053928;28;20225;-56
2021/08/28 06:20:09;;;;;;;0.85;0.85;;;23.70;43.00;;;;;;5050862;28;20212;-53
2021/08/28 06:22:35;;;;;;;1.20;1.10;;;23.70;43.00;;;;;;5063306;28;20293;-53
2021/08/28 06:25:02;;;;;;;1.20;1.08;;;23.80;43.00;;;;;;5063903;28;20804;-52
2021/08/28 06:27:28;;;;;;;2.10;1.17;;;23.80;43.00;;;;;;5063789;28;20323;-52
2021/08/28 06:29:55;;;;;;;1.73;1.30;;;23.70;42.90;;;;;;5067509;28;20280;-56
2021/08/28 06:32:21;;;;;;;4.03;1.30;;;23.80;43.00;;;;;;5051228;28;20561;-56
2021/08/28 06:34:47;;;;;;;1.08;0.90;;;23.70;43.00;;;;;;5063565;28;20235;-49
2021/08/28 06:37:14;;;;;;;1.30;1.10;;;23.80;43.00;;;;;;5053812;28;20232;-55
2021/08/28 06:39:41;;;;;;;2.40;1.27;;;23.70;42.90;;;;;;5050283;28;20546;-54
2021/08/28 06:42:07;;;;;;;1.67;1.00;;;23.80;42.90;;;;;;5050226;28;20229;-58
2021/08/28 06:44:34;;;;;;;1.98;1.23;;;23.70;43.00;;;;;;5051098;28;20229;-54
2021/08/28 06:47:00;;;;;;;2.15;1.58;;;23.70;43.20;;;;;;5051037;28;20221;-52
2021/08/28 06:49:27;;;;;;;2.55;1.40;;;23.80;43.30;;;;;;5050685;28;20194;-56
2021/08/28 06:51:54;;;;;;;1.20;1.10;;;23.70;43.20;;;;;;5050286;28;20206;-52
2021/08/28 06:54:21;;;;;;;1.00;1.00;;;23.70;43.20;;;;;;5050494;28;20227;-53
2021/08/28 06:56:47;;;;;;;1.63;1.30;;;23.80;43.30;;;;;;5052059;28;20748;-53
2021/08/28 06:59:14;;;;;;;1.58;1.20;;;23.80;43.30;;;;;;5050432;28;20233;-53
2021/08/28 07:01:41;;;;;;;2.97;1.42;;;23.80;43.30;;;;;;5050554;28;20305;-49
2021/08/28 07:04:07;;;;;;;1.05;1.05;;;23.80;43.30;;;;;;5048200;28;20309;-51
2021/08/28 07:06:34;;;;;;;2.03;1.08;;;23.80;43.30;;;;;;5049946;28;20257;-52
2021/08/28 07:09:02;;;;;;;1.45;1.20;;;23.70;43.20;;;;;;5052410;28;20298;-58
2021/08/28 07:11:28;;;;;;;1.42;1.23;;;23.80;43.30;;;;;;5039713;28;20204;-55
2021/08/28 07:13:55;;;;;;;2.00;1.30;;;23.80;43.30;;;;;;5063961;28;20209;-50
2021/08/28 07:16:21;;;;;;;3.40;1.67;;;23.80;43.70;;;;;;5055232;28;20213;-52
2021/08/28 07:18:47;;;;;;;2.03;1.50;;;23.80;44.50;;;;;;5054706;28;20358;-54
2021/08/28 07:21:17;;;;;;;2.72;1.58;;;23.70;43.90;;;;;;5050627;28;20204;-50
2021/08/28 07:23:44;;;;;;;1.90;1.70;;;23.80;44.20;;;;;;5051658;28;20322;-55
2021/08/28 07:26:10;;;;;;;1.58;1.48;;;21.20;41.00;;;;;;5059694;28;20221;-52
2021/08/28 07:28:37;;;;;;;2.92;1.48;;;19.30;45.70;;;;;;5059231;28;20198;-51
2021/08/28 07:31:05;;;;;;;1.55;1.40;;;19.70;45.60;;;;;;5055411;28;20208;-55
2021/08/28 07:33:31;;;;;;;1.50;1.38;;;19.70;46.00;;;;;;5055879;28;20205;-47
2021/08/28 07:35:58;;;;;;;2.20;1.33;;;19.70;46.20;;;;;;5067315;28;20612;-54
2021/08/28 07:38:25;;;;;;;0.90;0.90;;;20.80;44.40;;;;;;5051027;28;20222;-58
2021/08/28 07:40:51;;;;;;;1.10;1.10;;;21.60;43.10;;;;;;5056759;28;20229;-53
2021/08/28 07:43:18;;;;;;;1.30;1.20;;;22.10;42.80;;;;;;5053898;28;20718;-57
2021/08/28 07:45:44;;;;;;;1.37;1.20;;;22.40;42.30;;;;;;5072606;28;20757;-55
2021/08/28 07:48:11;;;;;;;1.57;1.03;;;22.60;42.30;;;;;;5056327;28;20584;-55
2021/08/28 07:50:37;;;;;;;2.00;1.10;;;22.70;42.30;;;;;;5050662;28;20244;-53
2021/08/28 07:53:03;;;;;;;1.08;0.98;;;22.80;42.60;;;;;;5053755;28;20205;-57
2021/08/28 07:55:30;;;;;;;2.05;0.90;;;22.90;42.60;;;;;;5059046;28;20201;-55
2021/08/28 07:57:56;;;;;;;1.08;1.08;;;22.90;42.70;;;;;;5057611;28;20284;-55
2021/08/28 08:00:23;;;;;;;1.20;1.10;;;23.00;42.70;;;;;;5056259;28;20208;-54
2021/08/28 08:02:49;;;;;;;0.88;0.88;;;23.00;42.70;;;;;;5054716;28;20196;-55
2021/08/28 08:05:16;;;;;;;1.05;0.95;;;23.00;42.60;;;;;;5057992;28;20239;-55
2021/08/28 08:07:42;;;;;;;0.90;0.90;;;23.10;42.70;;;;;;5059276;28;20202;-55
2021/08/28 08:10:09;;;;;;;1.55;1.10;;;23.10;42.80;;;;;;5051789;28;20198;-51
2021/08/28 08:12:35;;;;;;;4.05;1.10;;;23.20;42.80;;;;;;5055772;28;20237;-51
2021/08/28 08:15:02;;;;;;;1.20;1.10;;;23.20;42.70;;;;;;5057116;28;20208;-48
2021/08/28 08:17:28;;;;;;;1.23;1.00;;;23.30;42.80;;;;;;5066487;28;20770;-46
2021/08/28 08:19:55;;;;;;;1.20;1.10;;;23.30;43.00;;;;;;5059210;28;20537;-47
2021/08/28 08:22:22;;;;;;;0.80;0.80;;;23.40;43.20;;;;;;5067141;28;20215;-54
2021/08/28 08:24:49;;;;;;;3.13;1.13;;;23.30;42.90;;;;;;5054585;28;20253;-54
2021/08/28 08:27:15;;;;;;;0.98;0.95;;;23.40;43.10;;;;;;5042262;28;20705;-53
2021/08/28 08:29:42;;;;;;;1.75;1.00;;;23.40;43.10;;;;;;5061060;28;20673;-52
2021/08/28 08:32:08;;;;;;;1.15;1.13;;;23.40;43.20;;;;;;5053804;28;20217;-51
2021/08/28 08:34:35;;;;;;;0.93;0.90;;;23.40;42.60;;;;;;5053960;28;20220;-54
2021/08/28 08:37:01;;;;;;;2.95;1.10;;;23.30;42.30;;;;;;5053965;28;20248;-54
2021/08/28 08:39:27;;;;;;;2.17;1.05;;;23.30;42.30;;;;;;5052996;28;20202;-50
2021/08/28 08:41:54;;;;;;;1.42;1.33;;;23.30;42.30;;;;;;5053255;28;20198;-52
2021/08/28 08:44:20;;;;;;;1.23;0.90;;;23.30;42.30;;;;;;5053997;28;20234;-50
2021/08/28 08:46:47;;;;;;;2.47;1.10;;;23.30;42.30;;;;;;5053776;28;20320;-52
2021/08/28 08:49:13;;;;;;;2.15;1.13;;;23.30;42.30;;;;;;5053446;28;20197;-54
2021/08/28 08:51:40;;;;;;;1.45;0.90;;;23.40;42.40;;;;;;5053156;28;20293;-55
2021/08/28 08:54:06;;;;;;;3.15;1.20;;;23.40;42.40;;;;;;5053401;28;20305;-51
2021/08/28 08:56:33;;;;;;;1.73;1.02;;;23.40;42.40;;;;;;5053332;28;20218;-54
2021/08/28 08:58:59;;;;;;;0.95;0.95;;;23.40;42.40;;;;;;5050308;28;20613;-53
2021/08/28 09:01:26;;;;;;;3.05;0.98;;;23.40;42.40;;;;;;5044897;28;20202;-51
2021/08/28 09:03:54;;;;;;;1.25;1.00;;;23.40;42.40;;;;;;5052594;28;20225;-53
2021/08/28 09:06:20;;;;;;;1.45;0.93;;;23.40;42.40;;;;;;5053139;28;20225;-53
2021/08/28 09:08:47;;;;;;;2.63;1.00;;;23.40;42.40;;;;;;5053422;28;20285;-54
2021/08/28 09:11:13;;;;;;;1.45;0.82;;;23.40;42.40;;;;;;5052026;28;20198;-52
2021/08/28 09:13:40;;;;;;;1.23;0.93;;;23.40;42.40;;;;;;5053497;28;20202;-53
2021/08/28 09:16:07;;;;;;;1.70;1.05;;;23.40;42.40;;;;;;5052946;28;20232;-55
2021/08/28 09:18:34;;;;;;;0.90;0.90;;;23.40;42.40;;;;;;5053576;28;20208;-52
2021/08/28 09:21:01;;;;;;;1.10;1.00;;;23.40;42.10;;;;;;5054617;28;20288;-53
2021/08/28 09:23:27;;;;;;;1.00;0.90;;;23.40;42.10;;;;;;5052695;28;20288;-50
2021/08/28 09:25:54;;;;;;;1.95;1.13;;;23.50;42.50;;;;;;5047423;28;20230;-52
2021/08/28 09:28:20;;;;;;;1.58;1.10;;;23.50;42.50;;;;;;5070421;28;20240;-52
2021/08/28 09:30:49;;;;;;;4.20;0.93;;;23.50;42.50;;;;;;5054997;28;20240;-48
2021/08/28 09:33:15;;;;;;;1.48;1.10;;;23.50;42.50;;;;;;5050013;28;20200;-54
2021/08/28 09:35:42;;;;;;;1.10;1.00;;;23.50;42.50;;;;;;5067958;28;20225;-50
2021/08/28 09:38:08;;;;;;;1.35;0.90;;;23.50;42.50;;;;;;5054407;28;20212;-53
2021/08/28 09:40:35;;;;;;;1.33;1.23;;;23.50;42.50;;;;;;5050762;28;20201;-53
2021/08/28 09:43:01;;;;;;;0.98;0.98;;;23.50;42.50;;;;;;5068954;28;20209;-50
2021/08/28 09:45:28;;;;;;;1.25;1.10;;;23.50;42.50;;;;;;5048698;28;20234;-48
2021/08/28 09:47:54;;;;;;;2.50;1.17;;;23.50;42.50;;;;;;5061882;28;20203;-50
2021/08/28 09:50:20;;;;;;;1.10;1.00;;;23.60;42.60;;;;;;5061841;28;20206;-49
2021/08/28 09:52:47;;;;;;;1.02;0.88;;;23.60;42.60;;;;;;5061271;28;20224;-52
2021/08/28 09:55:13;;;;;;;0.90;0.90;;;23.60;42.60;;;;;;5055133;28;20231;-49
2021/08/28 09:57:40;;;;;;;1.20;1.10;;;23.60;42.60;;;;;;5063682;28;20201;-47
2021/08/28 10:00:07;;;;;;;2.88;1.27;;;23.60;42.60;;;;;;5056654;28;20201;-48
2021/08/28 10:02:33;;;;;;;2.42;1.40;;;23.60;42.60;;;;;;5063417;28;20205;-48
2021/08/28 10:05:00;;;;;;;4.35;1.90;;;23.50;42.50;;;;;;5060560;28;20242;-47
2021/08/28 10:07:26;;;;;;;2.35;1.70;;;23.50;42.60;;;;;;5063842;28;20201;-45
2021/08/28 10:09:53;;;;;;;2.25;1.60;;;23.50;42.40;;;;;;5054969;28;20207;-48
2021/08/28 10:12:19;;;;;;;2.45;1.38;;;23.50;42.10;;;;;;5057787;28;20206;-52
2021/08/28 10:14:46;;;;;;;2.45;1.35;;;23.50;41.70;;;;;;5052312;28;20204;-53
2021/08/28 10:17:12;;;;;;;1.55;1.20;;;23.50;41.30;;;;;;5053598;28;20226;-47
2021/08/28 10:19:39;;;;;;;3.15;1.55;;;23.50;41.40;;;;;;5051017;28;20224;-48
2021/08/28 10:22:05;;;;;;;2.60;1.58;;;23.50;41.60;;;;;;5052044;28;20198;-47
2021/08/28 10:24:32;;;;;;;1.95;1.27;;;23.40;41.50;;;;;;5059341;28;20251;-54
2021/08/28 10:26:58;;;;;;;2.00;1.30;;;23.50;41.60;;;;;;5056600;28;20283;-50
2021/08/28 10:29:25;;;;;;;1.40;1.30;;;23.50;41.40;;;;;;5048316;28;20197;-50
2021/08/28 10:31:51;;;;;;;1.75;1.40;;;23.50;41.20;;;;;;5051876;28;20205;-48
2021/08/28 10:34:18;;;;;;;1.40;1.20;;;23.40;40.90;;;;;;5049821;28;20213;-46
2021/08/28 10:36:45;;;;;;;1.83;1.48;;;23.40;40.90;;;;;;5050789;28;20553;-51
2021/08/28 10:39:11;;;;;;;2.08;1.17;;;23.40;41.10;;;;;;5050787;28;20595;-50
2021/08/28 10:41:38;;;;;;;2.65;1.40;;;23.40;40.70;;;;;;5063358;28;20538;-50
2021/08/28 10:44:04;;;;;;;4.35;1.20;;;23.40;40.50;;;;;;5053779;28;20216;-59
2021/08/28 10:46:31;;;;;;;4.70;1.38;;;23.50;41.40;;;;;;5049528;28;20230;-50
2021/08/28 10:48:57;;;;;;;2.55;1.42;;;23.50;39.80;;;;;;5049331;28;20589;-45
2021/08/28 10:51:24;;;;;;;3.97;1.17;;;23.50;39.90;;;;;;5053454;28;20221;-47
2021/08/28 10:53:50;;;;;;;1.17;1.00;;;23.40;39.40;;;;;;5056909;28;20197;-46
2021/08/28 10:56:17;;;;;;;1.10;1.05;;;23.40;38.90;;;;;;5059362;28;20232;-49
2021/08/28 10:58:43;;;;;;;2.78;1.23;;;23.40;38.90;;;;;;5056342;28;20292;-44
2021/08/28 11:01:10;;;;;;;13.40;2.60;;;23.40;39.10;;;;;;5053602;28;20267;-59
2021/08/28 11:03:37;;;;;;;1.70;1.05;;;23.50;39.80;;;;;;5052555;28;20225;-53
2021/08/28 11:06:03;;;;;;;1.17;0.88;;;23.60;39.70;;;;;;5063527;28;20271;-53
2021/08/28 11:08:29;;;;;;;1.25;1.00;;;23.60;40.00;;;;;;5058452;28;20197;-54
2021/08/28 11:10:56;;;;;;;1.10;0.98;;;23.60;39.50;;;;;;5054558;28;20193;-52
2021/08/28 11:13:22;;;;;;;1.23;0.90;;;23.60;39.90;;;;;;5064209;28;20205;-48
2021/08/28 11:15:49;;;;;;;2.22;1.00;;;23.60;39.80;;;;;;5059856;28;20311;-51
2021/08/28 11:18:15;;;;;;;2.55;1.25;;;23.60;39.80;;;;;;5065287;28;20205;-54
2021/08/28 11:20:42;;;;;;;2.17;1.00;;;23.60;39.80;;;;;;5052557;28;20202;-59
2021/08/28 11:23:08;;;;;;;1.05;1.00;;;23.60;40.00;;;;;;5049964;28;20201;-59
2021/08/28 11:25:35;;;;;;;1.10;1.00;;;23.60;40.10;;;;;;5051337;28;20320;-56
2021/08/28 11:28:03;;;;;;;2.55;1.30;;;23.60;40.10;;;;;;5060488;28;20206;-56
2021/08/28 11:30:29;;;;;;;1.40;1.20;;;23.60;39.50;;;;;;5045912;28;20565;-54
2021/08/28 11:32:56;;;;;;;1.80;1.60;;;23.50;39.90;;;;;;5049817;28;20293;-55
2021/08/28 11:35:23;;;;;;;5.28;1.80;;;23.60;39.80;;;;;;5038634;28;20276;-53
2021/08/28 11:37:50;;;;;;;5.72;2.05;;;23.50;39.60;;;;;;5049468;28;20206;-56
2021/08/28 11:40:16;;;;;;;2.67;1.92;;;23.60;39.90;;;;;;5049024;28;20573;-55
2021/08/28 11:42:43;;;;;;;6.68;2.47;;;23.60;40.00;;;;;;5049262;28;20232;-57
2021/08/28 11:45:09;;;;;;;5.00;2.40;;;23.50;40.20;;;;;;5050082;28;20308;-54
2021/08/28 11:47:35;;;;;;;5.15;2.50;;;23.50;40.40;;;;;;5050881;28;20202;-56
2021/08/28 11:50:06;;;;;;;5.82;2.63;;;23.60;41.00;;;;;;5048681;28;20215;-47
2021/08/28 11:52:32;;;;;;;4.13;2.58;;;23.50;41.40;;;;;;5043083;28;20222;-55
2021/08/28 11:55:00;;;;;;;3.45;1.70;;;23.60;41.70;;;;;;5050950;28;20225;-55
2021/08/28 11:57:27;;;;;;;3.42;1.70;;;23.60;41.70;;;;;;5060875;28;20592;-54
2021/08/28 11:59:53;;;;;;;4.03;1.77;;;23.60;42.10;;;;;;5057574;28;20223;-53
2021/08/28 12:02:20;;;;;;;4.28;1.80;;;23.60;42.50;;;;;;5065445;28;20300;-54
2021/08/28 12:04:46;;;;;;;4.80;2.03;;;23.60;43.10;;;;;;5066215;28;20328;-54
2021/08/28 12:07:13;;;;;;;2.10;1.55;;;23.60;42.60;;;;;;5067879;28;20208;-54
2021/08/28 12:09:39;;;;;;;6.13;2.08;;;23.50;42.50;;;;;;5056489;28;20662;-51
2021/08/28 12:12:06;;;;;;;3.58;1.60;;;23.60;42.60;;;;;;5049088;28;20689;-53
2021/08/28 12:14:32;;;;;;;2.33;1.60;;;23.60;42.60;;;;;;5057741;28;20741;-52
2021/08/28 12:16:58;;;;;;;1.88;1.20;;;23.60;42.60;;;;;;5052713;28;20671;-51
2021/08/28 12:19:25;;;;;;;2.83;1.58;;;23.50;42.50;;;;;;5052328;28;20688;-49
2021/08/28 12:21:51;;;;;;;4.53;1.60;;;23.50;42.50;;;;;;5050754;28;20567;-51
2021/08/28 12:24:18;;;;;;;3.45;1.98;;;23.50;42.50;;;;;;5049801;28;20646;-51
2021/08/28 12:26:44;;;;;;;3.97;1.58;;;23.50;42.50;;;;;;5048780;28;20240;-53
2021/08/28 12:29:11;;;;;;;2.03;1.40;;;23.50;42.50;;;;;;5048572;28;20741;-49
2021/08/28 12:31:37;;;;;;;2.85;1.33;;;23.50;42.50;;;;;;5064363;28;20699;-53
2021/08/28 12:36:42;;;;;;;2.63;1.60;;;23.50;43.70;;;;;;5371037;22;20238;-44
2021/08/28 12:39:08;;;;;;;2.17;1.30;;;23.60;42.50;;;;;;4990476;28;20250;-57
2021/08/28 12:41:35;;;;;;;2.45;1.73;;;23.50;41.90;;;;;;4990560;28;20203;-50
2021/08/28 12:44:02;;;;;;;2.65;1.23;;;23.50;41.80;;;;;;4990228;28;20212;-44
2021/08/28 12:46:28;;;;;;;1.65;1.45;;;23.60;41.60;;;;;;4990173;28;20242;-48